Terminal Aerodrome Forecast
Issued by NWS

Home | Current Version | Previous Version | Text Only | Print | Product List | Glossary Off
Versions: 1 2 3 4 5 6 7 8 9 10 11 12 13

000
FTUS43 KICT 282330
TAFCNU
TAF
KCNU 282330Z 2900/2924 19014G20KT P6SM SKC
     FM290100 17007KT P6SM SKC
     FM291500 02009KT P6SM VCSH BKN070=

USA.gov is the U.S. government's official web portal to all federal, state and local government web resources and services.